Latest Weather Observations for Cabramurra

IDN60901

Issued at 2:52 pm EDT Saturday 16 October 2021 (issued every 10 minutes, with the page automatically refreshed every 10 minutes)

About weather observations | Map of Canberra area stations | Latest observations for Canberra area | Other Formats
Station Details ID: 072161 Name: CABRAMURRA SMHEA AWS Lat: -35.94 Lon: 148.38 Height: 1482.4 m
Data from the previous 72 hours. | See also: Recent months at Cabramurra
Date/Time
EDT
Temp
°C
App
Temp
°C
Dew
Point
°C
Rel
Hum
%
Delta-T
°C
Wind Press
QNH
hPa
Press
MSL
hPa
Rain since
9am
mm
Dir  Spd
km/h
Gust
km/h
Spd
kts
Gust
kts
16/02:30pm 4.1 -4.2 4.1 100 0.0 W 37 61 20 33 - - 15.8
16/02:00pm 4.0 -3.6 4.0 100 0.0 W 33 56 18 30 - - 14.4
16/01:30pm 4.1 -2.5 4.1 100 0.0 WSW 28 46 15 25 - - 12.2
16/01:00pm 3.9 -3.7 3.9 100 0.0 W 33 52 18 28 - - 11.8
16/12:30pm 3.8 -3.3 3.8 100 0.0 WSW 30 52 16 28 - - 11.6
16/12:00pm 3.4 -3.7 3.4 100 0.0 WSW 30 48 16 26 - - 10.6
16/11:34am 3.3 -4.4 3.3 100 0.0 W 33 52 18 28 - - 8.8
16/11:30am 3.9 -3.5 3.9 100 0.0 WSW 32 48 17 26 - - 8.4
16/11:08am 3.2 -4.3 3.2 100 0.0 W 32 50 17 27 - - 7.8
16/11:00am 3.3 -3.8 3.3 100 0.0 WSW 30 43 16 23 - - 7.4
16/10:30am 3.4 -4.7 3.4 100 0.0 W 35 54 19 29 - - 7.0
16/10:26am 3.4 -3.7 3.4 100 0.0 W 30 54 16 29 - - 6.8
16/10:00am 2.9 -4.3 2.9 100 0.0 W 30 41 16 22 - - 5.4
16/09:30am 2.7 -4.2 2.7 100 0.0 W 28 41 15 22 - - 3.0
16/09:00am 2.5 -5.7 2.5 100 0.0 W 35 52 19 28 - - 49.6
16/08:57am 2.5 -5.4 2.5 100 0.0 W 33 52 18 28 - - 49.2
16/08:30am 2.2 -5.7 2.2 100 0.0 W 33 48 18 26 - - 47.8
16/08:00am 1.8 -6.9 1.8 100 0.0 W 37 52 20 28 - - 46.4
16/07:30am 1.7 -6.3 1.7 100 0.0 W 33 54 18 29 - - 44.8
16/07:23am 1.6 -6.2 1.6 100 0.0 W 32 50 17 27 - - 44.4
16/07:00am 1.5 -6.5 1.5 100 0.0 W 33 46 18 25 - - 43.2
16/06:30am 1.3 -5.4 1.3 100 0.0 W 26 37 14 20 - - 41.2
16/06:00am 1.2 -5.5 1.2 100 0.0 W 26 44 14 24 - - 39.0
16/05:40am 1.2 -6.9 1.2 100 0.0 W 33 54 18 29 - - 37.4
16/05:30am 1.3 -6.8 1.3 100 0.0 W 33 46 18 25 - - 36.6
16/05:00am 1.2 -6.9 1.2 100 0.0 W 33 48 18 26 - - 33.8
16/04:30am 0.9 -6.6 0.9 100 0.0 W 30 43 16 23 - - 31.4
16/04:07am 0.6 -7.6 0.6 100 0.0 W 33 52 18 28 - - 30.0
16/04:00am 0.6 -8.3 0.6 100 0.0 W 37 52 20 28 - - 29.6
16/03:34am 0.5 -7.5 0.5 100 0.0 WNW 32 50 17 27 - - 27.8
16/03:30am 0.6 -7.9 0.6 100 0.0 WNW 35 50 19 27 - - 27.6
16/03:00am 0.7 -8.2 0.7 100 0.0 WNW 37 61 20 33 - - 26.4
16/02:30am 0.5 -7.1 0.5 100 0.0 W 30 54 16 29 - - 24.4
16/02:00am 0.2 -9.5 0.2 100 0.0 W 41 61 22 33 - - 23.2
16/01:30am 0.1 -9.3 0.1 100 0.0 WNW 39 63 21 34 - - 23.2
16/01:00am 0.7 -9.9 0.7 100 0.0 W 46 72 25 39 - - 22.4
16/12:30am 1.4 -8.7 1.4 100 0.0 W 44 69 24 37 - - 20.8
16/12:00am 1.5 -8.6 1.5 100 0.0 W 44 67 24 36 - - 18.6
 
Date/Time
EDT
Temp
°C
App
Temp
°C
Dew
Point
°C
Rel
Hum
%
Delta-T
°C
Wind Press
QNH
hPa
Press
MSL
hPa
Rain since
9am
mm
Dir  Spd
km/h
Gust
km/h
Spd
kts
Gust
kts
15/11:46pm 1.8 -7.3 1.8 100 0.0 W 39 78 21 42 - - 17.6
15/11:30pm 1.8 -6.6 1.8 100 0.0 W 35 59 19 32 - - 16.2
15/11:00pm 1.7 -6.1 1.7 100 0.0 W 32 54 17 29 - - 13.2
15/10:30pm 2.0 -7.1 2.0 100 0.0 W 39 59 21 32 - - 12.6
15/10:11pm 2.1 -7.0 2.1 100 0.0 WNW 39 70 21 38 - - 12.2
15/10:05pm 2.1 -4.9 2.1 100 0.0 WNW 28 46 15 25 - - 11.8
15/10:00pm 2.3 -4.3 2.3 100 0.0 WNW 26 39 14 21 - - 11.6
15/09:30pm 2.2 -4.8 2.2 100 0.0 W 28 46 15 25 - - 11.4
15/09:00pm 2.0 -5.8 2.0 100 0.0 W 32 54 17 29 - - 11.4
15/08:34pm 2.1 -4.9 2.1 100 0.0 W 28 50 15 27 - - 11.2
15/08:30pm 2.1 -4.5 2.1 100 0.0 W 26 37 14 20 - - 11.2
15/08:16pm 2.1 -4.9 2.1 100 0.0 W 28 48 15 26 - - 11.2
15/08:00pm 1.9 -5.5 1.9 100 0.0 W 30 44 16 24 - - 11.2
15/07:30pm 2.2 -5.5 2.2 100 0.0 WNW 32 56 17 30 - - 10.6
15/07:29pm 2.1 -5.6 2.1 100 0.0 WNW 32 56 17 30 - - 10.6
15/07:00pm 2.6 -3.1 2.6 100 0.0 WNW 22 32 12 17 - - 9.8
15/06:30pm 2.8 -2.5 2.8 100 0.0 W 20 32 11 17 - - 9.8
15/06:00pm 2.5 -2.7 2.5 100 0.0 W 19 26 10 14 - - 8.6
15/05:30pm 2.6 -2.6 2.6 100 0.0 W 19 24 10 13 - - 8.4
15/05:00pm 1.9 -3.6 1.9 100 0.0 W 20 30 11 16 - - 8.2
15/04:30pm 2.4 -3.4 2.4 100 0.0 W 22 32 12 17 - - 7.2
15/04:00pm 2.9 -1.5 2.9 100 0.0 W 15 26 8 14 - - 6.8
15/03:30pm 1.9 -4.0 1.9 100 0.0 W 22 35 12 19 - - 6.2
15/03:00pm 3.0 -2.3 3.0 100 0.0 W 20 30 11 16 - - 5.6
15/02:30pm 3.0 -2.1 3.0 100 0.0 WNW 19 32 10 17 - - 5.2
15/02:00pm 2.8 -2.0 2.8 100 0.0 WNW 17 24 9 13 - - 4.6
15/01:30pm 3.6 -0.3 3.6 100 0.0 W 13 17 7 9 - - 4.4
15/01:00pm 2.4 -1.7 2.4 100 0.0 WNW 13 19 7 10 - - 4.2
15/12:30pm 1.8 -2.4 1.8 100 0.0 NW 13 24 7 13 - - 3.0
15/12:00pm 3.0 -1.7 3.0 100 0.0 W 17 22 9 12 - - 2.2
15/11:30am 1.6 -3.4 1.6 100 0.0 W 17 24 9 13 - - 2.2
15/11:00am 1.9 -2.6 1.9 100 0.0 NNW 15 22 8 12 - - 1.0
15/10:30am 3.0 -1.3 3.0 100 0.0 NW 15 20 8 11 - - 0.0
15/10:00am 2.4 -2.8 2.4 100 0.0 NNW 19 28 10 15 - - 0.0
15/09:30am 2.9 -0.7 2.9 100 0.0 NW 11 15 6 8 - - 0.0
15/09:00am 2.5 -0.8 2.5 100 0.0 NNW 9 15 5 8 - - 9.6
15/08:30am 2.3 -1.0 2.2 99 0.0 NNW 9 17 5 9 - - 9.6
15/08:00am 2.1 -0.9 2.0 99 0.0 NW 7 15 4 8 - - 9.6
15/07:30am 1.9 -2.7 1.8 99 0.0 N 15 20 8 11 - - 9.6
15/07:00am 1.9 -3.0 1.8 99 0.0 N 17 22 9 12 - - 9.6
15/06:30am 2.0 -3.9 1.9 99 0.0 N 22 30 12 16 - - 9.6
15/06:00am 2.0 -3.3 1.9 99 0.0 NNE 19 26 10 14 - - 9.6
15/05:30am 2.0 -2.2 1.9 99 0.0 N 13 22 7 12 - - 9.6
15/05:00am 2.0 -3.5 1.9 99 0.0 N 20 28 11 15 - - 9.6
15/04:30am 2.1 -3.3 1.5 96 0.3 N 19 28 10 15 - - 9.6
15/04:00am 2.0 -3.5 1.9 99 0.0 N 20 28 11 15 - - 9.6
15/03:30am 1.7 -3.6 1.6 99 0.0 NNE 19 24 10 13 - - 9.6
15/03:00am 1.3 -4.3 1.3 100 0.0 NE 20 28 11 15 - - 9.6
15/02:30am 1.5 -6.3 1.5 100 0.0 NNW 32 46 17 25 - - 9.0
15/02:00am 2.5 -4.4 2.5 100 0.0 NNW 28 39 15 21 - - 8.2
15/01:30am 2.9 -3.2 2.8 99 0.0 NNW 24 33 13 18 - - 7.4
15/01:00am 3.1 -1.3 2.5 96 0.3 NW 15 20 8 11 - - 7.0
15/12:30am 3.5 -1.6 2.8 95 0.3 WNW 19 28 10 15 - - 7.0
15/12:00am 4.4 0.0 2.6 88 0.8 WNW 15 26 8 14 - - 7.0
 
Date/Time
EDT
Temp
°C
App
Temp
°C
Dew
Point
°C
Rel
Hum
%
Delta-T
°C
Wind Press
QNH
hPa
Press
MSL
hPa
Rain since
9am
mm
Dir  Spd
km/h
Gust
km/h
Spd
kts
Gust
kts
14/11:30pm 4.2 1.3 2.4 88 0.8 SW 7 9 4 5 - - 7.0
14/11:00pm 4.2 0.6 2.7 90 0.7 W 11 15 6 8 - - 7.0
14/10:30pm 4.6 -0.3 2.3 85 1.0 W 17 24 9 13 - - 7.0
14/10:00pm 4.3 -0.1 2.7 89 0.7 W 15 22 8 12 - - 7.0
14/09:30pm 4.9 -1.1 3.2 89 0.8 WNW 24 37 13 20 - - 7.0
14/09:00pm 5.2 -0.6 4.5 95 0.3 WNW 24 32 13 17 - - 7.0
14/08:30pm 5.0 1.0 4.9 99 0.0 WNW 15 20 8 11 - - 7.0
14/08:00pm 5.0 0.6 5.0 100 0.0 NW 17 32 9 17 - - 6.8
14/07:30pm 5.5 -0.8 5.5 100 0.0 NW 28 41 15 22 - - 6.4
14/07:00pm 6.1 0.6 6.1 100 0.0 NNW 24 33 13 18 - - 5.4
14/06:30pm 6.5 2.5 6.5 100 0.0 NNW 17 28 9 15 - - 5.4
14/06:00pm 6.7 2.1 6.7 100 0.0 N 20 26 11 14 - - 5.4
14/05:30pm 6.8 3.6 6.8 100 0.0 NNW 13 20 7 11 - - 5.4
14/05:00pm 6.7 2.7 6.7 100 0.0 WNW 17 28 9 15 - - 5.4
14/04:30pm 7.1 3.2 7.1 100 0.0 NW 17 28 9 15 - - 5.4
14/04:00pm 6.7 2.1 6.7 100 0.0 NW 20 28 11 15 - - 5.4
14/03:30pm 7.1 4.0 7.1 100 0.0 N 13 20 7 11 - - 4.6
14/03:00pm 7.0 3.8 7.0 100 0.0 NNW 13 19 7 10 - - 4.6
14/02:30pm 7.6 3.4 7.5 99 0.1 NNW 19 24 10 13 - - 4.2
14/02:00pm 8.4 5.5 8.3 99 0.1 N 13 22 7 12 - - 4.2
14/01:30pm 7.9 4.9 7.6 98 0.2 NNE 13 17 7 9 - - 4.2
14/01:00pm 5.8 0.7 5.8 100 0.0 N 22 30 12 16 - - 4.0
14/12:30pm 6.7 3.1 6.6 99 0.0 N 15 20 8 11 - - 2.2
14/12:00pm 6.9 2.6 6.8 99 0.1 N 19 28 10 15 - - 2.0
14/11:30am 6.1 1.0 6.0 99 0.0 N 22 30 12 16 - - 1.8
14/11:00am 6.2 0.7 5.9 98 0.1 NNE 24 35 13 19 - - 1.4
14/10:30am 5.8 0.3 5.8 100 0.0 NNE 24 32 13 17 - - 1.4
14/10:00am 5.8 -0.1 5.7 99 0.0 N 26 35 14 19 - - 0.6
14/09:30am 6.4 0.3 4.7 89 0.8 NNE 26 39 14 21 - - 0.0
14/09:00am 6.3 0.5 6.2 99 0.0 NNE 26 39 14 21 - - 20.0
14/08:30am 6.0 1.3 5.9 99 0.0 NNE 20 32 11 17 - - 20.0
14/08:00am 5.7 1.1 5.6 99 0.0 NNE 19 24 10 13 - - 20.0
14/07:30am 5.4 1.1 5.3 99 0.0 NNE 17 26 9 14 - - 20.0
14/07:00am 5.3 1.0 5.2 99 0.0 NNE 17 24 9 13 - - 20.0
14/06:30am 5.3 0.4 5.3 100 0.0 N 20 28 11 15 - - 20.0
14/06:00am 4.9 0.9 4.9 100 0.0 N 15 20 8 11 - - 19.8
14/05:30am 5.0 1.4 5.0 100 0.0 N 13 17 7 9 - - 19.8
14/05:00am 5.0 -0.3 5.0 100 0.0 NNE 22 33 12 18 - - 19.8
14/04:45am 5.3 -1.5 5.3 100 0.0 N 30 48 16 26 - - 19.6
14/04:30am 4.8 -1.7 4.8 100 0.0 N 28 35 15 19 - - 18.8
14/04:00am 4.9 -0.4 4.9 100 0.0 N 22 41 12 22 - - 15.2
14/03:30am 4.6 -2.7 4.6 100 0.0 NW 32 63 17 34 - - 12.4
14/03:29am 4.6 -2.7 4.6 100 0.0 NW 32 63 17 34 - - 12.2
14/03:23am 4.5 -1.3 4.5 100 0.0 WNW 24 63 13 34 - - 10.2
14/03:21am 5.3 0.4 5.3 100 0.0 NW 20 50 11 27 - - 9.0
14/03:00am 6.8 1.1 6.7 99 0.1 N 26 35 14 19 - - 8.2
14/02:40am 7.1 1.1 7.0 99 0.1 NNE 28 52 15 28 - - 8.2
14/02:30am 7.0 2.5 7.0 100 0.0 N 20 33 11 18 - - 8.0
14/02:00am 7.3 1.4 7.3 100 0.0 N 28 43 15 23 - - 3.8
14/01:30am 7.6 1.3 7.5 99 0.1 NNE 30 41 16 22 - - 3.0
14/01:00am 7.5 2.0 7.4 99 0.1 NNE 26 39 14 21 - - 3.0
14/12:30am 7.0 2.5 6.9 99 0.1 N 20 35 11 19 - - 3.0
14/12:00am 6.7 4.2 6.7 100 0.0 WSW 9 17 5 9 - - 2.8
 
Date/Time
EDT
Temp
°C
App
Temp
°C
Dew
Point
°C
Rel
Hum
%
Delta-T
°C
Wind Press
QNH
hPa
Press
MSL
hPa
Rain since
9am
mm
Dir  Spd
km/h
Gust
km/h
Spd
kts
Gust
kts
13/11:30pm 7.2 1.2 7.1 99 0.1 NE 28 41 15 22 - - 2.0
13/11:00pm 7.2 0.8 7.1 99 0.1 NE 30 43 16 23 - - 2.0
13/10:30pm 6.9 0.5 6.9 100 0.0 NE 30 43 16 23 - - 2.0
13/10:02pm 7.0 1.0 6.9 99 0.1 NE 28 46 15 25 - - 1.0
13/10:00pm 6.9 1.6 6.8 99 0.1 NE 24 39 13 21 - - 0.8
13/09:30pm 7.1 0.3 7.0 99 0.1 NE 32 44 17 24 - - 0.0
13/09:00pm 6.8 0.0 6.7 99 0.1 ENE 32 44 17 24 - - 0.0
13/08:30pm 7.0 1.3 6.9 99 0.1 NE 26 37 14 20 - - 0.0
13/08:00pm 6.9 0.5 6.8 99 0.1 NE 30 43 16 23 - - 0.0
13/07:30pm 6.9 0.1 6.8 99 0.1 NE 32 46 17 25 - - 0.0
13/07:00pm 7.2 0.3 6.5 95 0.3 NE 32 43 17 23 - - 0.0
13/06:38pm 7.3 -0.2 6.2 93 0.5 NE 35 54 19 29 - - 0.0
13/06:30pm 7.3 -0.6 6.1 92 0.6 NE 37 54 20 29 - - 0.0
13/06:00pm 7.7 0.1 6.0 89 0.8 NE 35 50 19 27 - - 0.0
13/05:30pm 7.9 0.9 5.9 87 1.0 NE 32 46 17 25 - - 0.0
13/05:13pm 7.7 1.5 6.2 90 0.7 NE 28 46 15 25 - - 0.0
13/05:00pm 7.5 1.0 6.6 94 0.5 NE 30 43 16 23 - - 0.0
13/04:30pm 7.3 1.3 6.9 97 0.2 NE 28 43 15 23 - - 0.0
13/04:00pm 7.5 1.3 6.1 91 0.7 NE 28 35 15 19 - - 0.0
13/03:30pm 7.8 2.7 6.1 89 0.8 NE 22 35 12 19 - - 0.0
13/03:00pm 8.6 3.0 5.2 79 1.7 NNE 24 35 13 19 - - 0.0

Latest Capital City Observations: Canberra | Sydney | Melbourne | Brisbane | Adelaide | Perth | Hobart | Darwin

Other formats

Comma delimited format used in spreadsheet applications
http://www.bom.gov.au/fwo/IDN60903/IDN60903.95916.axf

JavaScript Object Notation format (JSON) in row-major order
http://www.bom.gov.au/fwo/IDN60903/IDN60903.95916.json

Data quality

Most of these data are generated automatically and are frequently updated. Quality checks on data are not normally performed. It is possible for incorrect values to appear. Refer to information at About Latest Weather Observations and please check the disclaimer before using these data.